Sanpo Maru No.7 — JD4178 — position and weather

sailwx.info

Track history (hours):
 
Tides and Currents Weather Stations Pressure Air Temp Water Temp Dewpoint Dewpoint Depression Visibility Wind Speed Wind Dir Waves Ship Positions

Sanpo Maru No.7

Last reported at 2018-Jun-18 04:59 UTC. Time now 2018-Jun-18 05:20 UTC.
Position N 35°12' E 139°47'.

Length 89 m; draft 5.6 m.

Type: Tanker. MMSI: 431009366.

Date/timePositionNaut miles runAvg speedWind from/ knotsBaromVisibWave heightAir tempDewpointWater temp
2018-Jun-18 04:59N 35°12' E 139°47'  
2018-Jun-15 08:30N 33°45' E 135°09'713.6
2018-Jun-15 07:58N 33°50' E 135°03'612.6
2018-Jun-15 07:29N 33°56' E 135°00'713.5
2018-Jun-15 06:59N 34°02' E 134°60'714.0
2018-Jun-15 06:30N 34°09' E 134°59'816.5
2018-Jun-15 06:00N 34°17' E 134°59'713.9
2018-Jun-15 05:30N 34°23' E 135°03'814.9
2018-Jun-15 05:00N 34°28' E 135°11'813.8
2018-Jun-15 04:26N 34°32' E 135°18'613.2
2018-Jun-15 04:00N 34°36' E 135°23'3 1.0
2018-Jun-15 01:06N 34°34' E 135°26'0 0.0
2018-Jun-15 01:00N 34°34' E 135°26'0 0.0
2018-Jun-15 00:30N 34°34' E 135°26'0 0.0
2018-Jun-15 00:00N 34°34' E 135°26'0 0.0
2018-Jun-14 23:29N 34°34' E 135°26'1 2.3
2018-Jun-14 23:00N 34°35' E 135°25'510.7
2018-Jun-14 22:30N 34°34' E 135°19'713.9
2018-Jun-14 22:00N 34°29' E 135°13'713.4
2018-Jun-14 21:30N 34°25' E 135°07'713.3
2018-Jun-14 21:00N 34°19' E 135°02'612.3
2018-Jun-14 20:31N 34°14' E 134°60'713.3
2018-Jun-14 20:00N 34°07' E 135°00'714.0
2018-Jun-14 19:30N 34°00' E 135°01'713.7
2018-Jun-14 19:00N 33°53' E 135°01'13 0.4
2018-Jun-13 12:15N 33°43' E 135°12'514.5
2018-Jun-13 11:56N 33°46' E 135°08'614.4
2018-Jun-13 11:30N 33°51' E 135°03'713.3
2018-Jun-13 11:01N 33°57' E 135°01'612.9
2018-Jun-13 10:30N 34°04' E 134°60'713.4
2018-Jun-13 10:01N 34°10' E 134°59'612.7
2018-Jun-13 09:30N 34°17' E 134°59'611.4
2018-Jun-13 09:01N 34°22' E 135°01'713.7
2018-Jun-13 08:31N 34°26' E 135°07'814.2
2018-Jun-13 07:57N 34°31' E 135°15'713.8
2018-Jun-13 07:27N 34°35' E 135°21'3 7.7
2018-Jun-13 07:00N 34°35' E 135°26'0 0.3
2018-Jun-13 06:24N 34°34' E 135°26'0 0.0
2018-Jun-13 06:00N 34°34' E 135°26'0 0.0
2018-Jun-13 05:30N 34°34' E 135°26'0 0.0
2018-Jun-13 05:00N 34°34' E 135°26'0 0.0
2018-Jun-13 02:42N 34°34' E 135°26'0 0.0
2018-Jun-13 01:24N 34°34' E 135°26'0 0.0
2018-Jun-13 01:00N 34°34' E 135°26'0 0.7
2018-Jun-13 00:30N 34°35' E 135°25'4 8.0
2018-Jun-13 00:00N 34°35' E 135°21'713.9
2018-Jun-12 23:30N 34°30' E 135°15'713.7
2018-Jun-12 23:01N 34°25' E 135°09'713.9
2018-Jun-12 22:30N 34°20' E 135°03'612.9
2018-Jun-12 22:00N 34°14' E 134°60'713.7
2018-Jun-12 21:30N 34°07' E 135°00'714.0
2018-Jun-12 21:00N 34°00' E 135°01'713.4
2018-Jun-12 20:31N 33°54' E 135°01'24811.0
2018-Jun-11 22:01N 35°14' E 139°46'113.3
2018-Jun-11 21:58N 35°14' E 139°46'612.9
2018-Jun-11 21:30N 35°19' E 139°43'611.9
2018-Jun-11 20:59N 35°25' E 139°45'613.4
2018-Jun-11 20:30N 35°30' E 139°51'6 6.7
2018-Jun-11 19:38N 35°35' E 139°54'0 0.1
2018-Jun-11 18:50N 35°35' E 139°54'0 0.0
2018-Jun-11 18:30N 35°35' E 139°54'0 0.0
2018-Jun-11 18:00N 35°35' E 139°54'0 0.0
2018-Jun-11 17:30N 35°35' E 139°54'0 0.0
2018-Jun-11 17:00N 35°35' E 139°54'0 0.0
2018-Jun-11 16:31N 35°35' E 139°54'0 0.0
2018-Jun-11 16:01N 35°35' E 139°54'0 0.0
2018-Jun-11 15:30N 35°35' E 139°54'0 0.0
2018-Jun-11 15:00N 35°35' E 139°54'0 0.0
2018-Jun-11 14:31N 35°35' E 139°54'0 0.0
2018-Jun-11 14:01N 35°35' E 139°54'0 0.0
2018-Jun-11 13:30N 35°35' E 139°54'0 0.0
2018-Jun-11 13:00N 35°35' E 139°54'0 0.0
2018-Jun-11 12:30N 35°35' E 139°54'0 0.0
2018-Jun-11 12:01N 35°35' E 139°54'0 0.0
2018-Jun-11 11:31N 35°35' E 139°54'0 0.0
2018-Jun-11 11:01N 35°35' E 139°54'0 0.0
2018-Jun-11 10:31N 35°35' E 139°54'0 0.0
2018-Jun-11 10:01N 35°35' E 139°54'0 0.0
2018-Jun-11 09:30N 35°35' E 139°54'0 0.0
2018-Jun-11 09:00N 35°35' E 139°54'0 0.0
2018-Jun-11 08:30N 35°35' E 139°54'0 0.0
2018-Jun-11 08:00N 35°35' E 139°54'0 0.0
2018-Jun-11 07:30N 35°35' E 139°54'0 0.0
2018-Jun-11 07:01N 35°35' E 139°54'0 0.0
2018-Jun-11 06:29N 35°35' E 139°54'0 0.1
2018-Jun-11 06:01N 35°35' E 139°54'0 0.0
2018-Jun-11 05:28N 35°35' E 139°54'0 0.0
2018-Jun-11 04:59N 35°35' E 139°54'0 0.0
2018-Jun-11 04:30N 35°35' E 139°54'0 0.0
2018-Jun-11 03:53N 35°35' E 139°54'0 0.0
2018-Jun-11 03:28N 35°35' E 139°54'0 0.0
2018-Jun-11 02:55N 35°35' E 139°54'0 0.0
2018-Jun-11 02:28N 35°35' E 139°54'0 0.0
2018-Jun-11 01:58N 35°35' E 139°54'0 0.0
2018-Jun-11 01:22N 35°35' E 139°54'0 0.0
2018-Jun-11 00:30N 35°35' E 139°54'0 0.0
2018-Jun-10 23:52N 35°35' E 139°54'0 0.0
2018-Jun-10 23:28N 35°35' E 139°54'0 0.0
2018-Jun-10 22:53N 35°35' E 139°54'0 0.0
2018-Jun-10 22:30N 35°35' E 139°54'0 0.0
2018-Jun-10 17:03N 35°35' E 139°54'0 0.0
2018-Jun-10 16:46N 35°35' E 139°54'0 0.0
2018-Jun-10 15:45N 35°35' E 139°54'0 0.0
2018-Jun-10 15:30N 35°35' E 139°54'0 0.0
2018-Jun-10 07:51N 35°35' E 139°54'0 0.0
2018-Jun-10 07:30N 35°35' E 139°54'0 0.0
2018-Jun-10 05:16N 35°35' E 139°54'0 0.5
2018-Jun-10 04:58N 35°35' E 139°54'5 0.8
2018-Jun-09 23:07N 35°32' E 139°59'112.7
2018-Jun-09 23:01N 35°31' E 139°58'612.3
2018-Jun-09 22:31N 35°28' E 139°51'612.3
2018-Jun-09 22:01N 35°24' E 139°46'611.5
2018-Jun-09 21:31N 35°18' E 139°45'  
Track history (hours):
 
Tides and Currents Weather Stations Pressure Air Temp Water Temp Dewpoint Dewpoint Depression Visibility Wind Speed Wind Dir Waves Ship Positions

Sanpo Maru No.7

Last reported at 2018-Jun-18 04:59 UTC. Time now 2018-Jun-18 05:20 UTC.
Position N 35°12' E 139°47'.

Length 89 m; draft 5.6 m.

Type: Tanker. MMSI: 431009366.

Date/timePositionNaut miles runAvg speedWind from/ knotsBaromVisibWave heightAir tempDewpointWater temp
2018-Jun-18 04:59N 35°12' E 139°47'  
2018-Jun-15 08:30N 33°45' E 135°09'713.6
2018-Jun-15 07:58N 33°50' E 135°03'612.6
2018-Jun-15 07:29N 33°56' E 135°00'713.5
2018-Jun-15 06:59N 34°02' E 134°60'714.0
2018-Jun-15 06:30N 34°09' E 134°59'816.5
2018-Jun-15 06:00N 34°17' E 134°59'713.9
2018-Jun-15 05:30N 34°23' E 135°03'814.9
2018-Jun-15 05:00N 34°28' E 135°11'813.8
2018-Jun-15 04:26N 34°32' E 135°18'613.2
2018-Jun-15 04:00N 34°36' E 135°23'3 1.0
2018-Jun-15 01:06N 34°34' E 135°26'0 0.0
2018-Jun-15 01:00N 34°34' E 135°26'0 0.0
2018-Jun-15 00:30N 34°34' E 135°26'0 0.0
2018-Jun-15 00:00N 34°34' E 135°26'0 0.0
2018-Jun-14 23:29N 34°34' E 135°26'1 2.3
2018-Jun-14 23:00N 34°35' E 135°25'510.7
2018-Jun-14 22:30N 34°34' E 135°19'713.9
2018-Jun-14 22:00N 34°29' E 135°13'713.4
2018-Jun-14 21:30N 34°25' E 135°07'713.3
2018-Jun-14 21:00N 34°19' E 135°02'612.3
2018-Jun-14 20:31N 34°14' E 134°60'713.3
2018-Jun-14 20:00N 34°07' E 135°00'714.0
2018-Jun-14 19:30N 34°00' E 135°01'713.7
2018-Jun-14 19:00N 33°53' E 135°01'13 0.4
2018-Jun-13 12:15N 33°43' E 135°12'514.5
2018-Jun-13 11:56N 33°46' E 135°08'614.4
2018-Jun-13 11:30N 33°51' E 135°03'713.3
2018-Jun-13 11:01N 33°57' E 135°01'612.9
2018-Jun-13 10:30N 34°04' E 134°60'713.4
2018-Jun-13 10:01N 34°10' E 134°59'612.7
2018-Jun-13 09:30N 34°17' E 134°59'611.4
2018-Jun-13 09:01N 34°22' E 135°01'713.7
2018-Jun-13 08:31N 34°26' E 135°07'814.2
2018-Jun-13 07:57N 34°31' E 135°15'713.8
2018-Jun-13 07:27N 34°35' E 135°21'3 7.7
2018-Jun-13 07:00N 34°35' E 135°26'0 0.3
2018-Jun-13 06:24N 34°34' E 135°26'0 0.0
2018-Jun-13 06:00N 34°34' E 135°26'0 0.0
2018-Jun-13 05:30N 34°34' E 135°26'0 0.0
2018-Jun-13 05:00N 34°34' E 135°26'0 0.0
2018-Jun-13 02:42N 34°34' E 135°26'0 0.0
2018-Jun-13 01:24N 34°34' E 135°26'0 0.0
2018-Jun-13 01:00N 34°34' E 135°26'0 0.7
2018-Jun-13 00:30N 34°35' E 135°25'4 8.0
2018-Jun-13 00:00N 34°35' E 135°21'713.9
2018-Jun-12 23:30N 34°30' E 135°15'713.7
2018-Jun-12 23:01N 34°25' E 135°09'713.9
2018-Jun-12 22:30N 34°20' E 135°03'612.9
2018-Jun-12 22:00N 34°14' E 134°60'713.7
2018-Jun-12 21:30N 34°07' E 135°00'714.0
2018-Jun-12 21:00N 34°00' E 135°01'713.4
2018-Jun-12 20:31N 33°54' E 135°01'24811.0
2018-Jun-11 22:01N 35°14' E 139°46'113.3
2018-Jun-11 21:58N 35°14' E 139°46'612.9
2018-Jun-11 21:30N 35°19' E 139°43'611.9
2018-Jun-11 20:59N 35°25' E 139°45'613.4
2018-Jun-11 20:30N 35°30' E 139°51'6 6.7
2018-Jun-11 19:38N 35°35' E 139°54'0 0.1
2018-Jun-11 18:50N 35°35' E 139°54'0 0.0
2018-Jun-11 18:30N 35°35' E 139°54'0 0.0
2018-Jun-11 18:00N 35°35' E 139°54'0 0.0
2018-Jun-11 17:30N 35°35' E 139°54'0 0.0
2018-Jun-11 17:00N 35°35' E 139°54'0 0.0
2018-Jun-11 16:31N 35°35' E 139°54'0 0.0
2018-Jun-11 16:01N 35°35' E 139°54'0 0.0
2018-Jun-11 15:30N 35°35' E 139°54'0 0.0
2018-Jun-11 15:00N 35°35' E 139°54'0 0.0
2018-Jun-11 14:31N 35°35' E 139°54'0 0.0
2018-Jun-11 14:01N 35°35' E 139°54'0 0.0
2018-Jun-11 13:30N 35°35' E 139°54'0 0.0
2018-Jun-11 13:00N 35°35' E 139°54'0 0.0
2018-Jun-11 12:30N 35°35' E 139°54'0 0.0
2018-Jun-11 12:01N 35°35' E 139°54'0 0.0
2018-Jun-11 11:31N 35°35' E 139°54'0 0.0
2018-Jun-11 11:01N 35°35' E 139°54'0 0.0
2018-Jun-11 10:31N 35°35' E 139°54'0 0.0
2018-Jun-11 10:01N 35°35' E 139°54'0 0.0
2018-Jun-11 09:30N 35°35' E 139°54'0 0.0
2018-Jun-11 09:00N 35°35' E 139°54'0 0.0
2018-Jun-11 08:30N 35°35' E 139°54'0 0.0
2018-Jun-11 08:00N 35°35' E 139°54'0 0.0
2018-Jun-11 07:30N 35°35' E 139°54'0 0.0
2018-Jun-11 07:01N 35°35' E 139°54'0 0.0
2018-Jun-11 06:29N 35°35' E 139°54'0 0.1
2018-Jun-11 06:01N 35°35' E 139°54'0 0.0
2018-Jun-11 05:28N 35°35' E 139°54'0 0.0
2018-Jun-11 04:59N 35°35' E 139°54'0 0.0
2018-Jun-11 04:30N 35°35' E 139°54'0 0.0
2018-Jun-11 03:53N 35°35' E 139°54'0 0.0
2018-Jun-11 03:28N 35°35' E 139°54'0 0.0
2018-Jun-11 02:55N 35°35' E 139°54'0 0.0
2018-Jun-11 02:28N 35°35' E 139°54'0 0.0
2018-Jun-11 01:58N 35°35' E 139°54'0 0.0
2018-Jun-11 01:22N 35°35' E 139°54'0 0.0
2018-Jun-11 00:30N 35°35' E 139°54'0 0.0
2018-Jun-10 23:52N 35°35' E 139°54'0 0.0
2018-Jun-10 23:28N 35°35' E 139°54'0 0.0
2018-Jun-10 22:53N 35°35' E 139°54'0 0.0
2018-Jun-10 22:30N 35°35' E 139°54'0 0.0
2018-Jun-10 17:03N 35°35' E 139°54'0 0.0
2018-Jun-10 16:46N 35°35' E 139°54'0 0.0
2018-Jun-10 15:45N 35°35' E 139°54'0 0.0
2018-Jun-10 15:30N 35°35' E 139°54'0 0.0
2018-Jun-10 07:51N 35°35' E 139°54'0 0.0
2018-Jun-10 07:30N 35°35' E 139°54'0 0.0
2018-Jun-10 05:16N 35°35' E 139°54'0 0.5
2018-Jun-10 04:58N 35°35' E 139°54'5 0.8
2018-Jun-09 23:07N 35°32' E 139°59'112.7
2018-Jun-09 23:01N 35°31' E 139°58'612.3
2018-Jun-09 22:31N 35°28' E 139°51'612.3
2018-Jun-09 22:01N 35°24' E 139°46'611.5
2018-Jun-09 21:31N 35°18' E 139°45'  

Dump ship's entire track history